sensor_id;sensor_type;location;lat;lon;timestamp;temperature;humidity
24518;DHT22;12678;51.336;12.406;2022-11-15T00:00:49;7.60;99.90
24518;DHT22;12678;51.336;12.406;2022-11-15T00:03:16;7.60;99.90
24518;DHT22;12678;51.336;12.406;2022-11-15T00:05:42;7.70;99.90
24518;DHT22;12678;51.336;12.406;2022-11-15T00:08:09;7.70;99.90
24518;DHT22;12678;51.336;12.406;2022-11-15T00:10:36;7.80;99.90
24518;DHT22;12678;51.336;12.406;2022-11-15T00:13:09;7.90;99.90
24518;DHT22;12678;51.336;12.406;2022-11-15T00:15:35;7.90;99.90
24518;DHT22;12678;51.336;12.406;2022-11-15T00:18:04;8.00;99.90
24518;DHT22;12678;51.336;12.406;2022-11-15T00:20:31;8.10;99.90
24518;DHT22;12678;51.336;12.406;2022-11-15T00:22:56;8.20;99.90
24518;DHT22;12678;51.336;12.406;2022-11-15T00:25:22;8.30;99.90
24518;DHT22;12678;51.336;12.406;2022-11-15T00:27:48;8.30;99.90
24518;DHT22;12678;51.336;12.406;2022-11-15T00:30:13;8.40;99.90
24518;DHT22;12678;51.336;12.406;2022-11-15T00:32:39;8.40;99.90
24518;DHT22;12678;51.336;12.406;2022-11-15T00:35:04;8.50;99.90
24518;DHT22;12678;51.336;12.406;2022-11-15T00:37:30;8.60;99.90
24518;DHT22;12678;51.336;12.406;2022-11-15T00:39:55;8.60;99.90
24518;DHT22;12678;51.336;12.406;2022-11-15T00:42:21;8.60;99.90
24518;DHT22;12678;51.336;12.406;2022-11-15T00:44:46;8.60;99.90
24518;DHT22;12678;51.336;12.406;2022-11-15T00:47:13;8.60;99.90
24518;DHT22;12678;51.336;12.406;2022-11-15T00:49:38;8.70;99.90
24518;DHT22;12678;51.336;12.406;2022-11-15T00:52:04;8.70;99.90
24518;DHT22;12678;51.336;12.406;2022-11-15T00:54:29;8.80;99.90
24518;DHT22;12678;51.336;12.406;2022-11-15T00:56:55;8.80;99.90
24518;DHT22;12678;51.336;12.406;2022-11-15T00:59:20;8.70;99.90
24518;DHT22;12678;51.336;12.406;2022-11-15T01:01:46;8.80;99.90
24518;DHT22;12678;51.336;12.406;2022-11-15T01:04:11;8.70;99.90
24518;DHT22;12678;51.336;12.406;2022-11-15T01:06:37;8.80;99.90
24518;DHT22;12678;51.336;12.406;2022-11-15T01:09:03;8.80;99.90
24518;DHT22;12678;51.336;12.406;2022-11-15T01:11:29;8.80;99.90
24518;DHT22;12678;51.336;12.406;2022-11-15T01:13:54;8.80;99.90
24518;DHT22;12678;51.336;12.406;2022-11-15T01:16:20;8.80;99.90
24518;DHT22;12678;51.336;12.406;2022-11-15T01:18:46;8.90;99.90
24518;DHT22;12678;51.336;12.406;2022-11-15T01:21:16;8.80;99.90
24518;DHT22;12678;51.336;12.406;2022-11-15T01:23:41;8.80;99.90
24518;DHT22;12678;51.336;12.406;2022-11-15T01:26:09;8.80;99.90
24518;DHT22;12678;51.336;12.406;2022-11-15T01:28:36;8.80;99.90
24518;DHT22;12678;51.336;12.406;2022-11-15T01:31:04;8.80;99.90
24518;DHT22;12678;51.336;12.406;2022-11-15T01:33:30;8.90;99.90
24518;DHT22;12678;51.336;12.406;2022-11-15T01:35:55;8.80;99.90
24518;DHT22;12678;51.336;12.406;2022-11-15T01:38:21;8.80;99.90
24518;DHT22;12678;51.336;12.406;2022-11-15T01:40:47;8.80;99.90
24518;DHT22;12678;51.336;12.406;2022-11-15T01:43:26;8.80;99.90
24518;DHT22;12678;51.336;12.406;2022-11-15T01:45:56;8.80;99.90
24518;DHT22;12678;51.336;12.406;2022-11-15T01:48:25;8.80;99.90
24518;DHT22;12678;51.336;12.406;2022-11-15T01:50:54;8.80;99.90
24518;DHT22;12678;51.336;12.406;2022-11-15T01:53:19;8.80;99.90
24518;DHT22;12678;51.336;12.406;2022-11-15T01:55:46;8.80;99.90
24518;DHT22;12678;51.336;12.406;2022-11-15T01:58:12;8.80;99.90
24518;DHT22;12678;51.336;12.406;2022-11-15T02:00:37;8.80;99.90
24518;DHT22;12678;51.336;12.406;2022-11-15T02:03:03;8.80;99.90
24518;DHT22;12678;51.336;12.406;2022-11-15T02:05:29;8.70;99.90
24518;DHT22;12678;51.336;12.406;2022-11-15T02:07:55;8.70;99.90
24518;DHT22;12678;51.336;12.406;2022-11-15T02:10:21;8.60;99.90
24518;DHT22;12678;51.336;12.406;2022-11-15T02:12:47;8.70;99.90
24518;DHT22;12678;51.336;12.406;2022-11-15T02:15:13;8.70;99.90
24518;DHT22;12678;51.336;12.406;2022-11-15T02:17:46;8.70;99.90
24518;DHT22;12678;51.336;12.406;2022-11-15T02:25:39;8.60;99.90
24518;DHT22;12678;51.336;12.406;2022-11-15T02:33:35;8.70;99.90
24518;DHT22;12678;51.336;12.406;2022-11-15T02:41:14;8.70;99.90
24518;DHT22;12678;51.336;12.406;2022-11-15T02:43:46;8.70;99.90
24518;DHT22;12678;51.336;12.406;2022-11-15T02:49:10;8.70;99.90
24518;DHT22;12678;51.336;12.406;2022-11-15T02:51:36;8.80;99.90
24518;DHT22;12678;51.336;12.406;2022-11-15T02:54:02;8.80;99.90
24518;DHT22;12678;51.336;12.406;2022-11-15T02:56:27;8.80;99.90
24518;DHT22;12678;51.336;12.406;2022-11-15T03:04:04;8.80;99.90
24518;DHT22;12678;51.336;12.406;2022-11-15T03:06:42;8.80;99.90
24518;DHT22;12678;51.336;12.406;2022-11-15T03:11:41;8.80;99.90
24518;DHT22;12678;51.336;12.406;2022-11-15T03:14:21;8.80;99.90
24518;DHT22;12678;51.336;12.406;2022-11-15T03:19:16;8.80;99.90
24518;DHT22;12678;51.336;12.406;2022-11-15T03:21:42;8.80;99.90
24518;DHT22;12678;51.336;12.406;2022-11-15T03:24:09;8.80;99.90
24518;DHT22;12678;51.336;12.406;2022-11-15T03:26:36;8.80;99.90
24518;DHT22;12678;51.336;12.406;2022-11-15T03:29:09;8.80;99.90
24518;DHT22;12678;51.336;12.406;2022-11-15T03:31:37;8.80;99.90
24518;DHT22;12678;51.336;12.406;2022-11-15T03:34:58;8.80;99.90
24518;DHT22;12678;51.336;12.406;2022-11-15T03:36:58;8.80;99.90
24518;DHT22;12678;51.336;12.406;2022-11-15T03:39:24;8.80;99.90
24518;DHT22;12678;51.336;12.406;2022-11-15T03:44:21;8.80;99.90
24518;DHT22;12678;51.336;12.406;2022-11-15T03:46:55;8.80;99.90
24518;DHT22;12678;51.336;12.406;2022-11-15T03:49:24;8.90;99.90
24518;DHT22;12678;51.336;12.406;2022-11-15T03:51:51;8.90;99.90
24518;DHT22;12678;51.336;12.406;2022-11-15T03:54:16;8.90;99.90
24518;DHT22;12678;51.336;12.406;2022-11-15T03:56:42;9.10;99.90
24518;DHT22;12678;51.336;12.406;2022-11-15T03:59:07;9.00;99.90
24518;DHT22;12678;51.336;12.406;2022-11-15T04:01:33;9.00;99.90
24518;DHT22;12678;51.336;12.406;2022-11-15T04:03:59;9.00;99.90
24518;DHT22;12678;51.336;12.406;2022-11-15T04:06:24;9.00;99.90
24518;DHT22;12678;51.336;12.406;2022-11-15T04:08:50;9.10;99.90
24518;DHT22;12678;51.336;12.406;2022-11-15T04:11:15;9.10;99.90
24518;DHT22;12678;51.336;12.406;2022-11-15T04:13:40;9.20;99.90
24518;DHT22;12678;51.336;12.406;2022-11-15T04:16:06;9.20;99.90
24518;DHT22;12678;51.336;12.406;2022-11-15T04:18:31;9.10;99.90
24518;DHT22;12678;51.336;12.406;2022-11-15T04:20:58;9.20;99.90
24518;DHT22;12678;51.336;12.406;2022-11-15T04:23:42;9.10;99.90
24518;DHT22;12678;51.336;12.406;2022-11-15T04:26:30;9.10;99.90
24518;DHT22;12678;51.336;12.406;2022-11-15T04:28:56;9.10;99.90
24518;DHT22;12678;51.336;12.406;2022-11-15T04:31:40;9.10;99.90
24518;DHT22;12678;51.336;12.406;2022-11-15T04:34:06;9.20;99.90
24518;DHT22;12678;51.336;12.406;2022-11-15T04:36:31;9.10;99.90
24518;DHT22;12678;51.336;12.406;2022-11-15T04:39:15;9.10;99.90
24518;DHT22;12678;51.336;12.406;2022-11-15T04:41:41;9.20;99.90
24518;DHT22;12678;51.336;12.406;2022-11-15T04:44:06;9.10;99.90
24518;DHT22;12678;51.336;12.406;2022-11-15T04:46:32;9.10;99.90
24518;DHT22;12678;51.336;12.406;2022-11-15T04:48:58;9.10;99.90
24518;DHT22;12678;51.336;12.406;2022-11-15T04:51:23;9.10;99.90
24518;DHT22;12678;51.336;12.406;2022-11-15T04:53:49;9.10;99.90
24518;DHT22;12678;51.336;12.406;2022-11-15T04:56:14;9.00;99.90
24518;DHT22;12678;51.336;12.406;2022-11-15T04:58:40;9.00;99.90
24518;DHT22;12678;51.336;12.406;2022-11-15T05:01:06;9.00;99.90
24518;DHT22;12678;51.336;12.406;2022-11-15T05:03:32;8.90;99.90
24518;DHT22;12678;51.336;12.406;2022-11-15T05:06:16;8.90;99.90
24518;DHT22;12678;51.336;12.406;2022-11-15T05:08:42;9.00;99.90
24518;DHT22;12678;51.336;12.406;2022-11-15T05:11:07;9.00;99.90
24518;DHT22;12678;51.336;12.406;2022-11-15T05:13:33;9.00;99.90
24518;DHT22;12678;51.336;12.406;2022-11-15T05:15:58;9.00;99.90
24518;DHT22;12678;51.336;12.406;2022-11-15T05:18:24;8.90;99.90
24518;DHT22;12678;51.336;12.406;2022-11-15T05:20:49;9.00;99.90
24518;DHT22;12678;51.336;12.406;2022-11-15T05:23:15;9.00;99.90
24518;DHT22;12678;51.336;12.406;2022-11-15T05:25:40;9.00;99.90
24518;DHT22;12678;51.336;12.406;2022-11-15T05:28:06;9.00;99.90
24518;DHT22;12678;51.336;12.406;2022-11-15T05:30:31;9.00;99.90
24518;DHT22;12678;51.336;12.406;2022-11-15T05:32:56;9.00;99.90
24518;DHT22;12678;51.336;12.406;2022-11-15T05:35:33;9.10;99.90
24518;DHT22;12678;51.336;12.406;2022-11-15T05:38:00;9.00;99.90
24518;DHT22;12678;51.336;12.406;2022-11-15T05:40:26;9.00;99.90
24518;DHT22;12678;51.336;12.406;2022-11-15T05:42:52;9.00;99.90
24518;DHT22;12678;51.336;12.406;2022-11-15T05:45:17;9.00;99.90
24518;DHT22;12678;51.336;12.406;2022-11-15T05:47:43;9.00;99.90
24518;DHT22;12678;51.336;12.406;2022-11-15T05:50:11;9.00;99.90
24518;DHT22;12678;51.336;12.406;2022-11-15T05:52:37;9.00;99.90
24518;DHT22;12678;51.336;12.406;2022-11-15T05:55:04;9.00;99.90
24518;DHT22;12678;51.336;12.406;2022-11-15T05:57:31;9.00;99.90
24518;DHT22;12678;51.336;12.406;2022-11-15T05:59:56;9.00;99.90
24518;DHT22;12678;51.336;12.406;2022-11-15T06:02:22;9.00;99.90
24518;DHT22;12678;51.336;12.406;2022-11-15T06:04:47;9.00;99.90
24518;DHT22;12678;51.336;12.406;2022-11-15T06:07:13;9.10;99.90
24518;DHT22;12678;51.336;12.406;2022-11-15T06:09:38;9.10;99.90
24518;DHT22;12678;51.336;12.406;2022-11-15T06:12:04;9.10;99.90
24518;DHT22;12678;51.336;12.406;2022-11-15T06:14:30;9.10;99.90
24518;DHT22;12678;51.336;12.406;2022-11-15T06:16:55;9.00;99.90
24518;DHT22;12678;51.336;12.406;2022-11-15T06:19:21;9.00;99.90
24518;DHT22;12678;51.336;12.406;2022-11-15T06:21:46;9.00;99.90
24518;DHT22;12678;51.336;12.406;2022-11-15T06:24:12;8.90;99.90
24518;DHT22;12678;51.336;12.406;2022-11-15T06:26:37;8.90;99.90
24518;DHT22;12678;51.336;12.406;2022-11-15T06:29:03;8.90;99.90
24518;DHT22;12678;51.336;12.406;2022-11-15T06:31:29;8.90;99.90
24518;DHT22;12678;51.336;12.406;2022-11-15T06:33:55;8.90;99.90
24518;DHT22;12678;51.336;12.406;2022-11-15T06:36:20;8.90;99.90
24518;DHT22;12678;51.336;12.406;2022-11-15T06:38:46;8.90;99.90
24518;DHT22;12678;51.336;12.406;2022-11-15T06:41:12;9.00;99.90
24518;DHT22;12678;51.336;12.406;2022-11-15T06:43:38;8.90;99.90
24518;DHT22;12678;51.336;12.406;2022-11-15T06:46:04;8.90;99.90
24518;DHT22;12678;51.336;12.406;2022-11-15T06:48:30;8.90;99.90
24518;DHT22;12678;51.336;12.406;2022-11-15T06:50:57;8.90;99.90
24518;DHT22;12678;51.336;12.406;2022-11-15T06:53:23;9.00;99.90
24518;DHT22;12678;51.336;12.406;2022-11-15T06:55:49;9.00;99.90
24518;DHT22;12678;51.336;12.406;2022-11-15T06:58:15;9.00;99.90
24518;DHT22;12678;51.336;12.406;2022-11-15T07:00:41;9.10;99.90
24518;DHT22;12678;51.336;12.406;2022-11-15T07:03:06;9.10;99.90
24518;DHT22;12678;51.336;12.406;2022-11-15T07:05:32;9.00;99.90
24518;DHT22;12678;51.336;12.406;2022-11-15T07:07:58;9.00;99.90
24518;DHT22;12678;51.336;12.406;2022-11-15T07:10:24;9.00;99.90
24518;DHT22;12678;51.336;12.406;2022-11-15T07:12:53;9.10;99.90
24518;DHT22;12678;51.336;12.406;2022-11-15T07:15:20;9.10;99.90
24518;DHT22;12678;51.336;12.406;2022-11-15T07:17:45;9.10;99.90
24518;DHT22;12678;51.336;12.406;2022-11-15T07:20:11;9.10;99.90
24518;DHT22;12678;51.336;12.406;2022-11-15T07:22:38;9.10;99.90
24518;DHT22;12678;51.336;12.406;2022-11-15T07:25:04;9.20;99.90
24518;DHT22;12678;51.336;12.406;2022-11-15T07:27:30;9.20;99.90
24518;DHT22;12678;51.336;12.406;2022-11-15T07:29:55;9.30;99.90
24518;DHT22;12678;51.336;12.406;2022-11-15T07:32:21;9.30;99.90
24518;DHT22;12678;51.336;12.406;2022-11-15T07:34:46;9.30;99.90
24518;DHT22;12678;51.336;12.406;2022-11-15T07:37:12;9.40;99.90
24518;DHT22;12678;51.336;12.406;2022-11-15T07:39:38;9.50;99.90
24518;DHT22;12678;51.336;12.406;2022-11-15T07:42:03;9.40;99.90
24518;DHT22;12678;51.336;12.406;2022-11-15T07:44:47;9.50;99.90
24518;DHT22;12678;51.336;12.406;2022-11-15T07:47:12;9.60;99.90
24518;DHT22;12678;51.336;12.406;2022-11-15T07:49:38;9.70;99.90
24518;DHT22;12678;51.336;12.406;2022-11-15T07:52:04;9.70;99.90
24518;DHT22;12678;51.336;12.406;2022-11-15T07:54:29;9.80;99.90
24518;DHT22;12678;51.336;12.406;2022-11-15T07:56:55;9.80;99.90
24518;DHT22;12678;51.336;12.406;2022-11-15T07:59:20;9.80;99.90
24518;DHT22;12678;51.336;12.406;2022-11-15T08:01:46;9.80;99.90
24518;DHT22;12678;51.336;12.406;2022-11-15T08:04:11;9.80;99.90
24518;DHT22;12678;51.336;12.406;2022-11-15T08:06:37;9.80;99.90
24518;DHT22;12678;51.336;12.406;2022-11-15T08:09:03;10.00;99.90
24518;DHT22;12678;51.336;12.406;2022-11-15T08:11:29;10.00;99.90
24518;DHT22;12678;51.336;12.406;2022-11-15T08:13:54;10.10;99.90
24518;DHT22;12678;51.336;12.406;2022-11-15T08:16:20;10.10;99.90
24518;DHT22;12678;51.336;12.406;2022-11-15T08:18:45;10.20;99.90
24518;DHT22;12678;51.336;12.406;2022-11-15T08:21:11;10.10;99.90
24518;DHT22;12678;51.336;12.406;2022-11-15T08:23:38;10.10;99.90
24518;DHT22;12678;51.336;12.406;2022-11-15T08:26:04;10.20;99.90
24518;DHT22;12678;51.336;12.406;2022-11-15T08:28:30;10.20;99.90
24518;DHT22;12678;51.336;12.406;2022-11-15T08:30:56;10.30;99.90
24518;DHT22;12678;51.336;12.406;2022-11-15T08:33:21;10.30;99.90
24518;DHT22;12678;51.336;12.406;2022-11-15T08:35:47;10.40;99.90
24518;DHT22;12678;51.336;12.406;2022-11-15T08:38:14;10.50;99.90
24518;DHT22;12678;51.336;12.406;2022-11-15T08:40:40;10.50;99.90
24518;DHT22;12678;51.336;12.406;2022-11-15T08:43:06;10.50;99.90
24518;DHT22;12678;51.336;12.406;2022-11-15T08:45:33;10.60;99.90
24518;DHT22;12678;51.336;12.406;2022-11-15T08:48:00;10.60;99.90
24518;DHT22;12678;51.336;12.406;2022-11-15T08:50:26;10.70;99.90
24518;DHT22;12678;51.336;12.406;2022-11-15T08:52:51;10.80;99.90
24518;DHT22;12678;51.336;12.406;2022-11-15T08:55:17;10.80;99.90
24518;DHT22;12678;51.336;12.406;2022-11-15T08:57:43;10.80;99.90
24518;DHT22;12678;51.336;12.406;2022-11-15T09:00:09;10.80;99.90
24518;DHT22;12678;51.336;12.406;2022-11-15T09:02:34;10.80;99.90
24518;DHT22;12678;51.336;12.406;2022-11-15T09:05:02;10.70;99.90
24518;DHT22;12678;51.336;12.406;2022-11-15T09:07:28;10.80;99.90
24518;DHT22;12678;51.336;12.406;2022-11-15T09:09:55;10.80;99.90
24518;DHT22;12678;51.336;12.406;2022-11-15T09:12:20;10.90;99.90
24518;DHT22;12678;51.336;12.406;2022-11-15T09:14:45;11.00;99.90
24518;DHT22;12678;51.336;12.406;2022-11-15T09:17:11;11.10;99.90
24518;DHT22;12678;51.336;12.406;2022-11-15T09:19:36;11.20;99.90
24518;DHT22;12678;51.336;12.406;2022-11-15T09:22:07;11.20;99.90
24518;DHT22;12678;51.336;12.406;2022-11-15T09:24:33;11.30;99.90
24518;DHT22;12678;51.336;12.406;2022-11-15T09:26:58;11.30;99.90
24518;DHT22;12678;51.336;12.406;2022-11-15T09:29:24;11.40;99.90
24518;DHT22;12678;51.336;12.406;2022-11-15T09:31:51;11.40;99.90
24518;DHT22;12678;51.336;12.406;2022-11-15T09:34:17;11.40;99.90
24518;DHT22;12678;51.336;12.406;2022-11-15T09:36:42;11.40;99.90
24518;DHT22;12678;51.336;12.406;2022-11-15T09:39:08;11.50;99.90
24518;DHT22;12678;51.336;12.406;2022-11-15T09:46:57;11.70;99.90
24518;DHT22;12678;51.336;12.406;2022-11-15T09:49:24;11.70;99.90
24518;DHT22;12678;51.336;12.406;2022-11-15T09:51:51;11.80;99.90
24518;DHT22;12678;51.336;12.406;2022-11-15T09:56:49;11.90;99.90
24518;DHT22;12678;51.336;12.406;2022-11-15T10:04:45;12.00;99.90
24518;DHT22;12678;51.336;12.406;2022-11-15T10:09:56;12.20;99.90
24518;DHT22;12678;51.336;12.406;2022-11-15T10:12:27;12.20;99.90
24518;DHT22;12678;51.336;12.406;2022-11-15T10:14:56;12.20;99.90
24518;DHT22;12678;51.336;12.406;2022-11-15T10:17:27;12.30;99.90
24518;DHT22;12678;51.336;12.406;2022-11-15T10:20:12;12.30;99.90
24518;DHT22;12678;51.336;12.406;2022-11-15T10:27:36;12.50;99.90
24518;DHT22;12678;51.336;12.406;2022-11-15T10:30:02;12.50;99.90
24518;DHT22;12678;51.336;12.406;2022-11-15T10:32:29;12.60;99.90
24518;DHT22;12678;51.336;12.406;2022-11-15T10:34:55;12.60;99.90
24518;DHT22;12678;51.336;12.406;2022-11-15T10:37:30;12.70;99.90
24518;DHT22;12678;51.336;12.406;2022-11-15T10:40:05;12.80;99.90
24518;DHT22;12678;51.336;12.406;2022-11-15T10:42:31;12.80;99.90
24518;DHT22;12678;51.336;12.406;2022-11-15T10:44:57;12.90;99.90
24518;DHT22;12678;51.336;12.406;2022-11-15T10:47:32;12.90;99.90
24518;DHT22;12678;51.336;12.406;2022-11-15T10:50:03;12.90;99.90
24518;DHT22;12678;51.336;12.406;2022-11-15T10:52:29;13.00;99.90
24518;DHT22;12678;51.336;12.406;2022-11-15T10:55:03;12.90;99.90
24518;DHT22;12678;51.336;12.406;2022-11-15T10:57:31;12.90;99.90
24518;DHT22;12678;51.336;12.406;2022-11-15T10:59:59;13.00;99.90
24518;DHT22;12678;51.336;12.406;2022-11-15T11:04:53;13.00;99.90
24518;DHT22;12678;51.336;12.406;2022-11-15T11:07:24;13.10;99.90
24518;DHT22;12678;51.336;12.406;2022-11-15T11:10:23;13.10;99.90
24518;DHT22;12678;51.336;12.406;2022-11-15T11:12:41;13.20;99.90
24518;DHT22;12678;51.336;12.406;2022-11-15T11:15:11;13.20;99.90
24518;DHT22;12678;51.336;12.406;2022-11-15T11:17:57;13.30;99.90
24518;DHT22;12678;51.336;12.406;2022-11-15T11:25:49;13.40;99.90
24518;DHT22;12678;51.336;12.406;2022-11-15T11:30:54;13.40;99.90
24518;DHT22;12678;51.336;12.406;2022-11-15T11:33:31;13.40;99.90
24518;DHT22;12678;51.336;12.406;2022-11-15T11:38:45;13.40;99.90
24518;DHT22;12678;51.336;12.406;2022-11-15T11:44:03;13.50;99.90
24518;DHT22;12678;51.336;12.406;2022-11-15T11:46:43;13.50;99.90
24518;DHT22;12678;51.336;12.406;2022-11-15T11:49:12;13.50;99.90
24518;DHT22;12678;51.336;12.406;2022-11-15T11:51:50;13.50;99.90
24518;DHT22;12678;51.336;12.406;2022-11-15T11:56:48;13.60;99.90
24518;DHT22;12678;51.336;12.406;2022-11-15T11:59:36;13.80;99.90
24518;DHT22;12678;51.336;12.406;2022-11-15T12:02:10;13.80;99.90
24518;DHT22;12678;51.336;12.406;2022-11-15T12:04:38;13.80;99.90
24518;DHT22;12678;51.336;12.406;2022-11-15T12:07:08;13.80;99.90
24518;DHT22;12678;51.336;12.406;2022-11-15T12:09:39;13.80;99.90
24518;DHT22;12678;51.336;12.406;2022-11-15T12:17:08;13.90;99.90
24518;DHT22;12678;51.336;12.406;2022-11-15T12:19:34;14.00;99.90
24518;DHT22;12678;51.336;12.406;2022-11-15T12:22:10;14.00;99.90
24518;DHT22;12678;51.336;12.406;2022-11-15T12:24:41;14.00;99.90
24518;DHT22;12678;51.336;12.406;2022-11-15T12:30:14;14.00;99.90
24518;DHT22;12678;51.336;12.406;2022-11-15T12:32:38;14.00;99.90
24518;DHT22;12678;51.336;12.406;2022-11-15T12:35:05;14.00;99.90
24518;DHT22;12678;51.336;12.406;2022-11-15T12:37:32;14.00;99.90
24518;DHT22;12678;51.336;12.406;2022-11-15T12:45:30;14.10;99.90
24518;DHT22;12678;51.336;12.406;2022-11-15T12:56:08;14.30;99.90
24518;DHT22;12678;51.336;12.406;2022-11-15T13:06:40;14.30;99.90
24518;DHT22;12678;51.336;12.406;2022-11-15T13:09:49;14.30;99.90
24518;DHT22;12678;51.336;12.406;2022-11-15T13:11:52;14.30;99.90
24518;DHT22;12678;51.336;12.406;2022-11-15T13:17:02;14.40;99.90
24518;DHT22;12678;51.336;12.406;2022-11-15T13:19:27;14.40;99.90
24518;DHT22;12678;51.336;12.406;2022-11-15T13:21:53;14.40;99.90
24518;DHT22;12678;51.336;12.406;2022-11-15T13:24:38;14.50;99.90
24518;DHT22;12678;51.336;12.406;2022-11-15T13:27:14;14.50;99.90
24518;DHT22;12678;51.336;12.406;2022-11-15T13:29:42;14.50;99.90
24518;DHT22;12678;51.336;12.406;2022-11-15T13:32:11;14.50;99.90
24518;DHT22;12678;51.336;12.406;2022-11-15T13:34:38;14.50;99.90
24518;DHT22;12678;51.336;12.406;2022-11-15T13:37:08;14.50;99.90
24518;DHT22;12678;51.336;12.406;2022-11-15T13:39:34;14.50;99.90
24518;DHT22;12678;51.336;12.406;2022-11-15T13:42:02;14.50;99.90
24518;DHT22;12678;51.336;12.406;2022-11-15T13:44:29;14.50;99.90
24518;DHT22;12678;51.336;12.406;2022-11-15T13:47:28;14.60;99.90
24518;DHT22;12678;51.336;12.406;2022-11-15T13:49:46;14.60;99.90
24518;DHT22;12678;51.336;12.406;2022-11-15T13:52:13;14.60;99.90
24518;DHT22;12678;51.336;12.406;2022-11-15T13:54:43;14.60;99.90
24518;DHT22;12678;51.336;12.406;2022-11-15T13:57:15;14.50;99.90
24518;DHT22;12678;51.336;12.406;2022-11-15T13:59:45;14.50;99.90
24518;DHT22;12678;51.336;12.406;2022-11-15T14:02:12;14.50;99.90
24518;DHT22;12678;51.336;12.406;2022-11-15T14:04:39;14.50;99.90
24518;DHT22;12678;51.336;12.406;2022-11-15T14:07:14;14.50;99.90
24518;DHT22;12678;51.336;12.406;2022-11-15T14:09:40;14.50;99.90
24518;DHT22;12678;51.336;12.406;2022-11-15T14:12:28;14.40;99.90
24518;DHT22;12678;51.336;12.406;2022-11-15T14:14:55;14.40;99.90
24518;DHT22;12678;51.336;12.406;2022-11-15T14:17:41;14.30;99.90
24518;DHT22;12678;51.336;12.406;2022-11-15T14:22:50;14.20;99.90
24518;DHT22;12678;51.336;12.406;2022-11-15T14:25:17;14.20;99.90
24518;DHT22;12678;51.336;12.406;2022-11-15T14:28:07;14.10;99.90
24518;DHT22;12678;51.336;12.406;2022-11-15T14:30:29;14.00;99.90
24518;DHT22;12678;51.336;12.406;2022-11-15T14:32:55;14.00;99.90
24518;DHT22;12678;51.336;12.406;2022-11-15T14:35:21;14.00;99.90
24518;DHT22;12678;51.336;12.406;2022-11-15T14:37:47;13.90;99.90
24518;DHT22;12678;51.336;12.406;2022-11-15T14:40:16;13.90;99.90
24518;DHT22;12678;51.336;12.406;2022-11-15T14:42:43;13.90;99.90
24518;DHT22;12678;51.336;12.406;2022-11-15T14:45:16;13.90;99.90
24518;DHT22;12678;51.336;12.406;2022-11-15T14:47:42;13.80;99.90
24518;DHT22;12678;51.336;12.406;2022-11-15T14:50:16;13.70;99.90
24518;DHT22;12678;51.336;12.406;2022-11-15T14:52:42;13.70;99.90
24518;DHT22;12678;51.336;12.406;2022-11-15T14:55:15;13.70;99.90
24518;DHT22;12678;51.336;12.406;2022-11-15T14:57:42;13.60;99.90
24518;DHT22;12678;51.336;12.406;2022-11-15T15:00:07;13.60;99.90
24518;DHT22;12678;51.336;12.406;2022-11-15T15:02:34;13.60;99.90
24518;DHT22;12678;51.336;12.406;2022-11-15T15:04:59;13.50;99.90
24518;DHT22;12678;51.336;12.406;2022-11-15T15:07:27;13.50;99.90
24518;DHT22;12678;51.336;12.406;2022-11-15T15:09:53;13.40;99.90
24518;DHT22;12678;51.336;12.406;2022-11-15T15:12:22;13.40;99.90
24518;DHT22;12678;51.336;12.406;2022-11-15T15:14:48;13.30;99.90
24518;DHT22;12678;51.336;12.406;2022-11-15T15:17:14;13.20;99.90
24518;DHT22;12678;51.336;12.406;2022-11-15T15:19:40;13.20;99.90
24518;DHT22;12678;51.336;12.406;2022-11-15T15:22:05;13.20;99.90
24518;DHT22;12678;51.336;12.406;2022-11-15T15:24:31;13.20;99.90
24518;DHT22;12678;51.336;12.406;2022-11-15T15:26:56;13.10;99.90
24518;DHT22;12678;51.336;12.406;2022-11-15T15:29:22;13.00;99.90
24518;DHT22;12678;51.336;12.406;2022-11-15T15:31:47;13.00;99.90
24518;DHT22;12678;51.336;12.406;2022-11-15T15:34:13;12.90;99.90
24518;DHT22;12678;51.336;12.406;2022-11-15T15:36:38;12.90;99.90
24518;DHT22;12678;51.336;12.406;2022-11-15T15:39:04;12.80;99.90
24518;DHT22;12678;51.336;12.406;2022-11-15T15:41:29;12.80;99.90
24518;DHT22;12678;51.336;12.406;2022-11-15T15:43:55;12.80;99.90
24518;DHT22;12678;51.336;12.406;2022-11-15T15:46:20;12.70;99.90
24518;DHT22;12678;51.336;12.406;2022-11-15T15:48:46;12.70;99.90
24518;DHT22;12678;51.336;12.406;2022-11-15T15:51:12;12.60;99.90
24518;DHT22;12678;51.336;12.406;2022-11-15T15:53:37;12.60;99.90
24518;DHT22;12678;51.336;12.406;2022-11-15T15:56:03;12.60;99.90
24518;DHT22;12678;51.336;12.406;2022-11-15T15:58:29;12.50;99.90
24518;DHT22;12678;51.336;12.406;2022-11-15T16:00:54;12.40;99.90
24518;DHT22;12678;51.336;12.406;2022-11-15T16:03:20;12.40;99.90
24518;DHT22;12678;51.336;12.406;2022-11-15T16:05:45;12.30;99.90
24518;DHT22;12678;51.336;12.406;2022-11-15T16:08:21;12.30;99.90
24518;DHT22;12678;51.336;12.406;2022-11-15T16:10:47;12.20;99.90
24518;DHT22;12678;51.336;12.406;2022-11-15T16:13:12;12.20;99.90
24518;DHT22;12678;51.336;12.406;2022-11-15T16:15:38;12.20;99.90
24518;DHT22;12678;51.336;12.406;2022-11-15T16:18:04;12.20;99.90
24518;DHT22;12678;51.336;12.406;2022-11-15T16:22:55;12.20;99.90
24518;DHT22;12678;51.336;12.406;2022-11-15T16:25:20;12.20;99.90
24518;DHT22;12678;51.336;12.406;2022-11-15T16:27:46;12.10;99.90
24518;DHT22;12678;51.336;12.406;2022-11-15T16:30:13;12.10;99.90
24518;DHT22;12678;51.336;12.406;2022-11-15T16:32:42;12.00;99.90
24518;DHT22;12678;51.336;12.406;2022-11-15T16:35:11;12.00;99.90
24518;DHT22;12678;51.336;12.406;2022-11-15T16:37:40;11.90;99.90
24518;DHT22;12678;51.336;12.406;2022-11-15T16:42:35;11.80;99.90
24518;DHT22;12678;51.336;12.406;2022-11-15T16:45:01;11.70;99.90
24518;DHT22;12678;51.336;12.406;2022-11-15T16:47:28;11.60;99.90
24518;DHT22;12678;51.336;12.406;2022-11-15T16:49:53;11.60;99.90
24518;DHT22;12678;51.336;12.406;2022-11-15T16:52:19;11.50;99.90
24518;DHT22;12678;51.336;12.406;2022-11-15T16:54:44;11.40;99.90
24518;DHT22;12678;51.336;12.406;2022-11-15T16:57:10;11.40;99.90
24518;DHT22;12678;51.336;12.406;2022-11-15T16:59:35;11.40;99.90
24518;DHT22;12678;51.336;12.406;2022-11-15T17:02:01;11.30;99.90
24518;DHT22;12678;51.336;12.406;2022-11-15T17:04:26;11.30;99.90
24518;DHT22;12678;51.336;12.406;2022-11-15T17:06:57;11.20;99.90
24518;DHT22;12678;51.336;12.406;2022-11-15T17:09:22;11.20;99.90
24518;DHT22;12678;51.336;12.406;2022-11-15T17:11:48;11.20;99.90
24518;DHT22;12678;51.336;12.406;2022-11-15T17:14:14;11.10;99.90
24518;DHT22;12678;51.336;12.406;2022-11-15T17:16:40;11.10;99.90